createdAt,value
2023-05-25T00:00:00.333Z,2.90
2023-05-25T00:03:03.451Z,3.10
2023-05-25T00:06:05.572Z,2.93
2023-05-25T00:09:07.680Z,3.30
2023-05-25T00:12:09.295Z,3.10
2023-05-25T00:15:11.045Z,2.90
2023-05-25T00:18:13.051Z,2.90
2023-05-25T00:21:15.636Z,2.83
2023-05-25T00:24:17.405Z,2.80
2023-05-25T00:27:18.830Z,3.40
2023-05-25T00:30:20.431Z,2.90
2023-05-25T00:33:22.176Z,3.30
2023-05-25T00:36:24.449Z,3.13
2023-05-25T00:39:25.894Z,3.10
2023-05-25T00:42:28.071Z,3.37
2023-05-25T00:45:29.539Z,3.37
2023-05-25T00:48:31.379Z,3.30
2023-05-25T00:51:36.374Z,2.93
2023-05-25T00:54:38.033Z,3.20
2023-05-25T00:57:45.832Z,3.07
2023-05-25T01:00:49.612Z,3.27
2023-05-25T01:03:55.994Z,3.07
2023-05-25T01:06:59.641Z,3.13
2023-05-25T01:10:04.854Z,3.13
2023-05-25T01:13:08.675Z,2.73
2023-05-25T01:16:10.233Z,2.90
2023-05-25T01:19:11.753Z,2.93
2023-05-25T01:22:22.204Z,3.20
2023-05-25T01:25:30.293Z,3.10
2023-05-25T01:28:40.174Z,3.20
2023-05-25T01:31:42.807Z,3.40
2023-05-25T01:34:45.324Z,2.93
2023-05-25T01:37:47.638Z,3.57
2023-05-25T01:40:49.102Z,3.13
2023-05-25T01:43:51.354Z,3.23
2023-05-25T01:47:04.888Z,2.87
2023-05-25T01:50:31.294Z,3.07
2023-05-25T01:53:42.690Z,2.70
2023-05-25T01:56:46.652Z,2.80
2023-05-25T01:59:49.424Z,2.97
2023-05-25T02:02:52.537Z,3.33
2023-05-25T02:05:54.703Z,2.77
2023-05-25T02:08:56.152Z,3.13
2023-05-25T02:11:59.658Z,2.83
2023-05-25T02:15:01.542Z,2.57
2023-05-25T02:18:05.681Z,2.80
2023-05-25T02:21:07.194Z,3.00
2023-05-25T02:24:09.508Z,2.57
2023-05-25T02:27:12.747Z,3.30
2023-05-25T02:30:14.802Z,3.27
2023-05-25T02:33:16.296Z,2.90
2023-05-25T02:36:17.736Z,3.30
2023-05-25T02:39:19.148Z,3.20
2023-05-25T02:42:21.130Z,3.07
2023-05-25T02:45:22.862Z,3.80
2023-05-25T02:48:24.867Z,3.33
2023-05-25T02:51:27.712Z,3.50
2023-05-25T02:54:30.836Z,3.57
2023-05-25T02:57:32.825Z,3.73
2023-05-25T03:00:36.185Z,3.70
2023-05-25T03:03:38.330Z,3.53
2023-05-25T03:06:39.904Z,3.63
2023-05-25T03:09:51.840Z,3.63
2023-05-25T03:12:53.266Z,4.20
2023-05-25T03:15:54.770Z,3.57
2023-05-25T03:18:57.462Z,3.77
2023-05-25T03:21:58.978Z,3.47
2023-05-25T03:25:00.507Z,3.50
2023-05-25T03:28:02.002Z,3.57
2023-05-25T03:31:04.498Z,4.10
2023-05-25T03:34:06.892Z,3.40
2023-05-25T03:37:11.159Z,3.53
2023-05-25T03:40:12.781Z,4.07
2023-05-25T03:43:14.215Z,3.40
2023-05-25T03:46:17.833Z,3.73
2023-05-25T03:49:19.418Z,3.63
2023-05-25T03:52:20.884Z,3.70
2023-05-25T03:55:22.357Z,3.60
2023-05-25T03:58:23.793Z,4.03
2023-05-25T04:01:26.578Z,3.60
2023-05-25T04:04:28.189Z,3.23
2023-05-25T04:07:31.113Z,3.57
2023-05-25T04:10:33.317Z,3.80
2023-05-25T04:13:36.515Z,3.93
2023-05-25T04:16:41.274Z,3.90
2023-05-25T04:19:43.251Z,3.73
2023-05-25T04:22:44.966Z,3.90
2023-05-25T04:25:47.201Z,4.00
2023-05-25T04:28:49.657Z,4.47
2023-05-25T04:32:00.412Z,3.90
2023-05-25T04:35:09.707Z,3.73
2023-05-25T04:38:17.641Z,3.33
2023-05-25T04:41:19.275Z,3.80
2023-05-25T04:44:25.666Z,4.00
2023-05-25T04:47:29.184Z,3.30
2023-05-25T04:50:30.778Z,4.40
2023-05-25T04:53:32.344Z,3.60
2023-05-25T04:56:33.939Z,3.43
2023-05-25T04:59:35.497Z,3.50
2023-05-25T05:02:38.586Z,3.60
2023-05-25T05:05:40.909Z,3.63
2023-05-25T05:08:47.057Z,3.63
2023-05-25T05:11:48.531Z,3.93
2023-05-25T05:14:50.457Z,3.50
2023-05-25T05:17:52.060Z,3.87
2023-05-25T05:20:53.577Z,3.80
2023-05-25T05:23:56.130Z,3.70
2023-05-25T05:26:59.150Z,4.20
2023-05-25T05:30:10.434Z,3.80
2023-05-25T05:33:12.419Z,3.70
2023-05-25T05:36:19.820Z,3.70
2023-05-25T05:39:21.277Z,3.90
2023-05-25T05:42:23.342Z,4.03
2023-05-25T05:45:24.777Z,4.30
2023-05-25T05:48:26.801Z,4.20
2023-05-25T05:51:28.844Z,4.00
2023-05-25T05:54:30.473Z,4.60
2023-05-25T05:57:35.829Z,4.60
2023-05-25T06:00:37.550Z,4.20
2023-05-25T06:03:41.650Z,3.90
2023-05-25T06:06:45.175Z,4.10
2023-05-25T06:09:46.670Z,4.70
2023-05-25T06:12:48.665Z,3.90
2023-05-25T06:15:50.628Z,3.87
2023-05-25T06:18:56.794Z,3.83
2023-05-25T06:21:58.315Z,3.60
2023-05-25T06:24:59.771Z,3.73
2023-05-25T06:28:02.387Z,3.90
2023-05-25T06:31:03.844Z,3.47
2023-05-25T06:34:06.932Z,3.97
2023-05-25T06:37:08.416Z,3.50
2023-05-25T06:40:11.232Z,3.93
2023-05-25T06:43:12.664Z,3.67
2023-05-25T06:46:22.241Z,3.37
2023-05-25T06:49:23.755Z,3.80
2023-05-25T06:52:28.066Z,4.10
2023-05-25T06:55:29.482Z,3.93
2023-05-25T06:58:31.009Z,3.93
2023-05-25T07:01:32.475Z,3.90
2023-05-25T07:04:34.558Z,3.43
2023-05-25T07:07:36.212Z,3.90
2023-05-25T07:10:37.624Z,3.40
2023-05-25T07:13:39.068Z,4.00
2023-05-25T07:16:40.868Z,3.80
2023-05-25T07:19:43.314Z,3.70
2023-05-25T07:22:47.038Z,4.00
2023-05-25T07:25:48.491Z,4.03
2023-05-25T07:28:50.047Z,3.43
2023-05-25T07:31:51.566Z,4.37
2023-05-25T07:34:53.959Z,3.93
2023-05-25T07:37:59.488Z,4.50
2023-05-25T07:41:01.223Z,3.97
2023-05-25T07:44:02.895Z,4.10
2023-05-25T07:47:06.669Z,4.10
2023-05-25T07:50:08.853Z,4.33
2023-05-25T07:53:10.428Z,4.10
2023-05-25T07:56:11.949Z,4.53
2023-05-25T07:59:14.255Z,4.07
2023-05-25T08:02:15.820Z,3.50
2023-05-25T08:05:17.417Z,4.07
2023-05-25T08:08:18.930Z,4.03
2023-05-25T08:11:25.027Z,3.70
2023-05-25T08:14:26.579Z,4.10
2023-05-25T08:17:28.008Z,4.23
2023-05-25T08:20:29.691Z,4.47
2023-05-25T08:23:31.780Z,4.17
2023-05-25T08:26:52.338Z,3.93
2023-05-25T08:29:55.040Z,4.07
2023-05-25T08:32:56.542Z,4.17
2023-05-25T08:35:59.090Z,4.07
2023-05-25T08:39:00.657Z,4.37
2023-05-25T08:42:02.266Z,4.20
2023-05-25T08:45:03.952Z,4.10
2023-05-25T08:48:12.275Z,3.97
2023-05-25T08:51:16.370Z,4.20
2023-05-25T08:54:22.570Z,4.00
2023-05-25T08:57:34.077Z,4.70
2023-05-25T09:00:42.462Z,4.27
2023-05-25T09:03:46.196Z,4.27
2023-05-25T09:06:57.198Z,4.10
2023-05-25T09:10:04.835Z,4.40
2023-05-25T09:13:20.354Z,4.33
2023-05-25T09:16:25.897Z,4.10
2023-05-25T09:19:27.330Z,4.20
2023-05-25T09:22:28.882Z,4.40
2023-05-25T09:25:31.805Z,3.87
2023-05-25T09:28:33.303Z,3.70
2023-05-25T09:31:34.810Z,4.10
2023-05-25T09:34:36.310Z,4.33
2023-05-25T09:37:38.048Z,4.80
2023-05-25T09:40:39.611Z,4.13
2023-05-25T09:43:46.797Z,4.30
2023-05-25T09:46:56.231Z,4.30
2023-05-25T09:49:58.494Z,3.97
2023-05-25T09:53:01.071Z,4.60
2023-05-25T09:56:04.154Z,4.93
2023-05-25T09:59:06.472Z,4.70
2023-05-25T10:02:08.514Z,4.07
2023-05-25T10:05:10.041Z,4.57
2023-05-25T10:08:13.167Z,3.87
2023-05-25T10:11:16.050Z,4.43
2023-05-25T10:14:25.914Z,3.93
2023-05-25T10:17:32.191Z,4.20
2023-05-25T10:20:35.273Z,4.43
2023-05-25T10:23:45.718Z,4.13
2023-05-25T10:26:51.050Z,3.97
2023-05-25T10:29:55.594Z,4.23
2023-05-25T10:32:57.749Z,4.47
2023-05-25T10:36:10.192Z,4.43
2023-05-25T10:39:13.233Z,4.40
2023-05-25T10:42:17.157Z,4.50
2023-05-25T10:45:19.640Z,4.60
2023-05-25T10:48:21.210Z,4.33
2023-05-25T10:51:23.265Z,4.10
2023-05-25T10:54:29.701Z,4.33
2023-05-25T10:57:31.454Z,4.03
2023-05-25T11:00:32.997Z,4.00
2023-05-25T11:03:43.875Z,3.73
2023-05-25T11:06:48.558Z,4.30
2023-05-25T11:09:59.219Z,4.43
2023-05-25T11:13:32.449Z,4.20
2023-05-25T11:16:36.150Z,4.20
2023-05-25T11:19:52.171Z,4.07
2023-05-25T11:22:53.922Z,4.10
2023-05-25T11:26:05.519Z,3.83
2023-05-25T11:29:16.221Z,3.57
2023-05-25T11:32:17.798Z,4.27
2023-05-25T11:35:19.595Z,3.93
2023-05-25T11:38:24.894Z,3.90
2023-05-25T11:41:26.349Z,4.43
2023-05-25T11:44:29.523Z,4.20
2023-05-25T11:47:32.738Z,3.63
2023-05-25T11:50:35.272Z,4.60
2023-05-25T11:53:44.944Z,4.07
2023-05-25T11:56:46.607Z,4.10
2023-05-25T11:59:52.663Z,3.83
2023-05-25T12:02:54.554Z,4.03
2023-05-25T12:05:56.877Z,3.83
2023-05-25T12:08:58.331Z,3.67
2023-05-25T12:12:00.672Z,3.37
2023-05-25T12:15:02.212Z,4.30
2023-05-25T12:18:03.798Z,4.17
2023-05-25T12:21:08.193Z,3.40
2023-05-25T12:24:12.631Z,4.13
2023-05-25T12:27:22.556Z,4.00
2023-05-25T12:30:28.349Z,3.50
2023-05-25T12:33:29.791Z,3.67
2023-05-25T12:36:39.707Z,3.80
2023-05-25T12:39:41.143Z,4.00
2023-05-25T12:42:42.583Z,3.90
2023-05-25T12:45:44.359Z,3.80
2023-05-25T12:48:46.027Z,3.90
2023-05-25T12:51:47.487Z,3.77
2023-05-25T12:54:49.711Z,3.63
2023-05-25T12:57:52.704Z,3.50
2023-05-25T13:00:54.279Z,3.50
2023-05-25T13:03:55.742Z,3.30
2023-05-25T13:06:57.201Z,4.30
2023-05-25T13:09:58.647Z,3.55
2023-05-25T13:13:00.958Z,3.25
2023-05-25T13:16:02.620Z,3.43
2023-05-25T13:19:04.110Z,3.57
2023-05-25T13:22:05.583Z,4.00
2023-05-25T13:25:07.255Z,3.90
2023-05-25T13:28:08.675Z,3.67
2023-05-25T13:31:10.125Z,3.20
2023-05-25T13:34:11.708Z,3.38
2023-05-25T13:37:13.132Z,3.80
2023-05-25T13:40:14.832Z,3.50
2023-05-25T13:43:16.418Z,3.80
2023-05-25T13:46:33.476Z,3.35
2023-05-25T13:49:36.394Z,3.60
2023-05-25T13:52:37.910Z,3.47
2023-05-25T13:55:39.954Z,3.55
2023-05-25T13:58:41.823Z,3.17
2023-05-25T14:01:43.437Z,3.72
2023-05-25T14:04:44.922Z,3.63
2023-05-25T14:07:47.147Z,3.60
2023-05-25T14:10:48.574Z,3.42
2023-05-25T14:13:50.002Z,3.78
2023-05-25T14:16:51.427Z,3.53
2023-05-25T14:19:52.857Z,3.40
2023-05-25T14:22:55.118Z,3.40
2023-05-25T14:25:56.550Z,3.53
2023-05-25T14:28:58.055Z,3.38
2023-05-25T14:31:59.917Z,3.67
2023-05-25T14:35:01.402Z,3.92
2023-05-25T14:38:02.844Z,3.25
2023-05-25T14:41:04.561Z,3.92
2023-05-25T14:44:06.183Z,3.55
2023-05-25T14:47:07.736Z,3.67
2023-05-25T14:50:10.316Z,3.25
2023-05-25T14:53:11.868Z,3.47
2023-05-25T14:56:13.373Z,3.83
2023-05-25T14:59:14.856Z,3.70
2023-05-25T15:02:16.446Z,3.60
2023-05-25T15:05:17.890Z,3.50
2023-05-25T15:08:19.441Z,3.50
2023-05-25T15:11:20.857Z,4.38
2023-05-25T15:14:22.296Z,3.78
2023-05-25T15:17:24.178Z,3.75
2023-05-25T15:20:25.705Z,3.60
2023-05-25T15:23:27.199Z,3.65
2023-05-25T15:26:28.632Z,3.65
2023-05-25T15:29:30.189Z,3.65
2023-05-25T15:32:31.643Z,3.50
2023-05-25T15:35:33.200Z,3.92
2023-05-25T15:38:34.665Z,4.07
2023-05-25T15:41:36.250Z,3.70
2023-05-25T15:44:37.752Z,4.03
2023-05-25T15:47:39.244Z,3.78
2023-05-25T15:50:40.734Z,3.78
2023-05-25T15:53:42.250Z,3.40
2023-05-25T15:56:43.652Z,3.88
2023-05-25T15:59:45.235Z,3.70
2023-05-25T16:02:46.682Z,3.95
2023-05-25T16:05:48.359Z,4.13
2023-05-25T16:08:49.945Z,3.92
2023-05-25T16:11:51.486Z,3.45
2023-05-25T16:14:53.343Z,3.42
2023-05-25T16:17:54.825Z,3.45
2023-05-25T16:20:57.538Z,3.65
2023-05-25T16:23:59.122Z,3.80
2023-05-25T16:27:00.817Z,3.90
2023-05-25T16:30:02.339Z,4.18
2023-05-25T16:33:04.099Z,3.53
2023-05-25T16:36:05.960Z,3.85
2023-05-25T16:39:07.968Z,3.70
2023-05-25T16:42:09.454Z,3.60
2023-05-25T16:45:10.855Z,3.53
2023-05-25T16:48:12.390Z,3.65
2023-05-25T16:51:15.646Z,4.10
2023-05-25T16:54:17.316Z,3.50
2023-05-25T16:57:18.878Z,3.30
2023-05-25T17:00:20.832Z,3.60
2023-05-25T17:03:22.348Z,3.72
2023-05-25T17:06:23.950Z,3.38
2023-05-25T17:09:25.651Z,3.65
2023-05-25T17:12:27.256Z,3.90
2023-05-25T17:15:28.670Z,3.88
2023-05-25T17:18:30.118Z,3.53
2023-05-25T17:21:32.021Z,3.35
2023-05-25T17:24:33.500Z,3.83
2023-05-25T17:27:35.504Z,3.60
2023-05-25T17:30:36.999Z,3.55
2023-05-25T17:33:39.089Z,3.70
2023-05-25T17:36:40.542Z,3.70
2023-05-25T17:39:42.610Z,3.33
2023-05-25T17:42:45.459Z,3.40
2023-05-25T17:45:47.355Z,3.80
2023-05-25T17:48:49.099Z,3.55
2023-05-25T17:51:50.875Z,3.25
2023-05-25T17:54:54.306Z,3.65
2023-05-25T17:57:55.857Z,3.17
2023-05-25T18:00:57.433Z,3.55
2023-05-25T18:03:59.023Z,3.35
2023-05-25T18:07:00.521Z,3.13
2023-05-25T18:10:01.971Z,3.37
2023-05-25T18:13:03.417Z,3.43
2023-05-25T18:16:04.994Z,3.67
2023-05-25T18:19:07.090Z,3.60
2023-05-25T18:22:08.512Z,3.20
2023-05-25T18:25:10.348Z,3.40
2023-05-25T18:28:14.699Z,3.50
2023-05-25T18:31:16.210Z,3.63
2023-05-25T18:34:17.661Z,3.80
2023-05-25T18:37:19.143Z,3.90
2023-05-25T18:40:20.764Z,3.60
2023-05-25T18:43:22.268Z,4.43
2023-05-25T18:46:25.146Z,4.20
2023-05-25T18:49:32.525Z,4.00
2023-05-25T18:52:34.419Z,4.17
2023-05-25T18:55:37.190Z,4.40
2023-05-25T18:58:38.799Z,4.63
2023-05-25T19:01:40.255Z,5.20
2023-05-25T19:04:41.760Z,4.80
2023-05-25T19:07:58.198Z,4.80
2023-05-25T19:11:00.841Z,4.70
2023-05-25T19:14:02.329Z,4.93
2023-05-25T19:17:03.908Z,4.57
2023-05-25T19:20:06.195Z,4.40
2023-05-25T19:23:07.786Z,4.63
2023-05-25T19:26:10.148Z,5.00
2023-05-25T19:29:11.611Z,4.73
2023-05-25T19:32:17.354Z,5.07
2023-05-25T19:35:18.932Z,4.83
2023-05-25T19:38:20.732Z,5.30
2023-05-25T19:41:22.870Z,5.17
2023-05-25T19:44:24.943Z,4.70
2023-05-25T19:47:26.930Z,5.30
2023-05-25T19:50:30.572Z,5.00
2023-05-25T19:53:32.415Z,5.10
2023-05-25T19:56:34.866Z,5.13
2023-05-25T19:59:37.471Z,5.07
2023-05-25T20:02:40.224Z,5.07
2023-05-25T20:05:42.056Z,5.30
2023-05-25T20:08:43.602Z,5.40
2023-05-25T20:11:45.145Z,5.40
2023-05-25T20:14:46.564Z,5.47
2023-05-25T20:17:48.148Z,6.20
2023-05-25T20:20:50.430Z,5.50
2023-05-25T20:23:51.955Z,5.90
2023-05-25T20:26:56.567Z,6.07
2023-05-25T20:29:58.314Z,5.57
2023-05-25T20:32:59.860Z,5.60
2023-05-25T20:36:01.397Z,5.47
2023-05-25T20:39:03.211Z,6.17
2023-05-25T20:42:05.140Z,6.30
2023-05-25T20:45:07.106Z,6.00
2023-05-25T20:48:08.557Z,6.03
2023-05-25T20:51:11.505Z,6.03
2023-05-25T20:54:12.930Z,6.07
2023-05-25T20:57:14.441Z,5.63
2023-05-25T21:00:17.008Z,5.33
2023-05-25T21:03:18.759Z,5.83
2023-05-25T21:06:20.776Z,5.60
2023-05-25T21:09:22.341Z,5.67
2023-05-25T21:12:23.912Z,5.30
2023-05-25T21:15:26.500Z,5.43
2023-05-25T21:18:27.916Z,6.17
2023-05-25T21:21:33.665Z,5.50
2023-05-25T21:24:35.226Z,5.90
2023-05-25T21:27:36.666Z,6.60
2023-05-25T21:30:38.101Z,6.20
2023-05-25T21:33:40.097Z,6.17
2023-05-25T21:36:41.531Z,5.30
2023-05-25T21:39:43.820Z,6.10
2023-05-25T21:42:45.321Z,5.67
2023-05-25T21:45:47.384Z,5.67
2023-05-25T21:48:48.901Z,5.63
2023-05-25T21:51:50.360Z,5.70
2023-05-25T21:54:52.109Z,5.77
2023-05-25T21:57:53.522Z,5.60
2023-05-25T22:00:54.952Z,5.57
2023-05-25T22:03:56.598Z,5.30
2023-05-25T22:06:58.062Z,5.70
2023-05-25T22:09:59.463Z,4.80
2023-05-25T22:13:01.705Z,5.70
2023-05-25T22:16:03.126Z,5.27
2023-05-25T22:19:04.581Z,5.57
2023-05-25T22:22:06.124Z,5.10
2023-05-25T22:25:07.858Z,5.20
2023-05-25T22:28:09.353Z,5.10
2023-05-25T22:31:11.342Z,5.00
2023-05-25T22:34:12.953Z,5.13
2023-05-25T22:37:14.408Z,5.00
2023-05-25T22:40:16.152Z,5.10
2023-05-25T22:43:17.575Z,5.47
2023-05-25T22:46:20.435Z,5.47
2023-05-25T22:49:21.901Z,4.80
2023-05-25T22:52:23.350Z,5.17
2023-05-25T22:55:25.082Z,4.87
2023-05-25T22:58:26.505Z,5.20
2023-05-25T23:01:28.202Z,4.90
2023-05-25T23:04:29.692Z,4.73
2023-05-25T23:07:31.385Z,4.93
2023-05-25T23:10:32.845Z,4.87
2023-05-25T23:13:34.282Z,4.80
2023-05-25T23:16:35.845Z,5.00
2023-05-25T23:19:38.619Z,5.53
2023-05-25T23:22:40.120Z,5.47
2023-05-25T23:25:41.592Z,4.87
2023-05-25T23:28:43.122Z,5.13
2023-05-25T23:31:44.634Z,5.50
2023-05-25T23:34:46.163Z,5.03
2023-05-25T23:37:47.598Z,5.63
2023-05-25T23:40:49.011Z,5.23
2023-05-25T23:43:50.603Z,5.63
2023-05-25T23:46:52.068Z,5.43
2023-05-25T23:49:53.501Z,5.83
2023-05-25T23:52:54.955Z,5.60
2023-05-25T23:55:56.464Z,5.70
2023-05-25T23:58:58.373Z,5.67
